sensor_id;sensor_type;location;lat;lon;timestamp;P1;durP1;ratioP1;P2;durP2;ratioP2
21890;SDS011;11110;52.386;16.940;2024-02-26T00:01:42;116.00;;;67.77;;
21890;SDS011;11110;52.386;16.940;2024-02-26T00:04:11;123.83;;;80.30;;
21890;SDS011;11110;52.386;16.940;2024-02-26T00:06:40;112.60;;;71.37;;
21890;SDS011;11110;52.386;16.940;2024-02-26T00:09:08;133.37;;;78.97;;
21890;SDS011;11110;52.386;16.940;2024-02-26T00:11:37;130.43;;;81.20;;
21890;SDS011;11110;52.386;16.940;2024-02-26T00:14:06;145.03;;;83.47;;
21890;SDS011;11110;52.386;16.940;2024-02-26T00:16:35;147.20;;;84.03;;
21890;SDS011;11110;52.386;16.940;2024-02-26T00:19:04;122.40;;;75.80;;
21890;SDS011;11110;52.386;16.940;2024-02-26T00:21:33;127.73;;;77.70;;
21890;SDS011;11110;52.386;16.940;2024-02-26T00:24:01;134.97;;;80.93;;
21890;SDS011;11110;52.386;16.940;2024-02-26T00:26:30;130.67;;;78.93;;
21890;SDS011;11110;52.386;16.940;2024-02-26T00:28:59;134.53;;;76.33;;
21890;SDS011;11110;52.386;16.940;2024-02-26T00:31:27;115.43;;;70.20;;
21890;SDS011;11110;52.386;16.940;2024-02-26T00:33:56;110.53;;;71.87;;
21890;SDS011;11110;52.386;16.940;2024-02-26T00:36:26;135.00;;;80.30;;
21890;SDS011;11110;52.386;16.940;2024-02-26T00:38:54;124.33;;;76.87;;
21890;SDS011;11110;52.386;16.940;2024-02-26T00:41:23;135.20;;;80.70;;
21890;SDS011;11110;52.386;16.940;2024-02-26T00:43:52;143.83;;;85.60;;
21890;SDS011;11110;52.386;16.940;2024-02-26T00:46:20;149.30;;;84.47;;
21890;SDS011;11110;52.386;16.940;2024-02-26T00:48:49;134.37;;;80.27;;
21890;SDS011;11110;52.386;16.940;2024-02-26T00:51:17;138.43;;;83.87;;
21890;SDS011;11110;52.386;16.940;2024-02-26T00:53:52;142.53;;;83.37;;
21890;SDS011;11110;52.386;16.940;2024-02-26T00:56:22;139.47;;;82.40;;
21890;SDS011;11110;52.386;16.940;2024-02-26T00:58:50;135.77;;;81.07;;
21890;SDS011;11110;52.386;16.940;2024-02-26T01:01:19;124.17;;;73.67;;
21890;SDS011;11110;52.386;16.940;2024-02-26T01:03:47;118.70;;;70.70;;
21890;SDS011;11110;52.386;16.940;2024-02-26T01:06:16;126.10;;;75.90;;
21890;SDS011;11110;52.386;16.940;2024-02-26T01:08:45;130.33;;;77.43;;
21890;SDS011;11110;52.386;16.940;2024-02-26T01:11:15;129.17;;;77.67;;
21890;SDS011;11110;52.386;16.940;2024-02-26T01:13:43;107.33;;;55.00;;
21890;SDS011;11110;52.386;16.940;2024-02-26T01:16:12;115.27;;;53.13;;
21890;SDS011;11110;52.386;16.940;2024-02-26T01:18:40;105.17;;;56.53;;
21890;SDS011;11110;52.386;16.940;2024-02-26T01:21:09;122.73;;;72.27;;
21890;SDS011;11110;52.386;16.940;2024-02-26T01:23:37;122.67;;;75.80;;
21890;SDS011;11110;52.386;16.940;2024-02-26T01:26:06;123.60;;;79.70;;
21890;SDS011;11110;52.386;16.940;2024-02-26T01:28:35;136.00;;;81.93;;
21890;SDS011;11110;52.386;16.940;2024-02-26T01:31:04;132.13;;;79.03;;
21890;SDS011;11110;52.386;16.940;2024-02-26T01:33:35;130.70;;;77.77;;
21890;SDS011;11110;52.386;16.940;2024-02-26T01:36:04;134.60;;;79.33;;
21890;SDS011;11110;52.386;16.940;2024-02-26T01:38:33;131.17;;;74.50;;
21890;SDS011;11110;52.386;16.940;2024-02-26T01:41:02;119.13;;;73.50;;
21890;SDS011;11110;52.386;16.940;2024-02-26T01:43:31;109.57;;;67.10;;
21890;SDS011;11110;52.386;16.940;2024-02-26T01:46:01;119.47;;;74.13;;
21890;SDS011;11110;52.386;16.940;2024-02-26T01:48:30;115.27;;;68.90;;
21890;SDS011;11110;52.386;16.940;2024-02-26T01:50:59;120.53;;;70.63;;
21890;SDS011;11110;52.386;16.940;2024-02-26T01:53:27;114.17;;;72.43;;
21890;SDS011;11110;52.386;16.940;2024-02-26T01:55:56;109.50;;;58.47;;
21890;SDS011;11110;52.386;16.940;2024-02-26T01:58:25;108.97;;;59.20;;
21890;SDS011;11110;52.386;16.940;2024-02-26T02:00:54;100.67;;;56.50;;
21890;SDS011;11110;52.386;16.940;2024-02-26T02:03:24;110.43;;;62.27;;
21890;SDS011;11110;52.386;16.940;2024-02-26T02:05:53;119.27;;;68.90;;
21890;SDS011;11110;52.386;16.940;2024-02-26T02:08:22;125.63;;;71.30;;
21890;SDS011;11110;52.386;16.940;2024-02-26T02:10:51;117.90;;;74.00;;
21890;SDS011;11110;52.386;16.940;2024-02-26T02:13:19;129.43;;;75.40;;
21890;SDS011;11110;52.386;16.940;2024-02-26T02:15:48;134.93;;;80.37;;
21890;SDS011;11110;52.386;16.940;2024-02-26T02:18:16;122.13;;;74.83;;
21890;SDS011;11110;52.386;16.940;2024-02-26T02:20:47;139.63;;;81.57;;
21890;SDS011;11110;52.386;16.940;2024-02-26T02:23:15;140.20;;;80.70;;
21890;SDS011;11110;52.386;16.940;2024-02-26T02:25:44;134.83;;;79.80;;
21890;SDS011;11110;52.386;16.940;2024-02-26T02:28:12;129.50;;;76.47;;
21890;SDS011;11110;52.386;16.940;2024-02-26T02:30:41;129.23;;;76.77;;
21890;SDS011;11110;52.386;16.940;2024-02-26T02:33:09;122.83;;;73.53;;
21890;SDS011;11110;52.386;16.940;2024-02-26T02:35:39;124.27;;;70.77;;
21890;SDS011;11110;52.386;16.940;2024-02-26T02:38:09;121.87;;;68.67;;
21890;SDS011;11110;52.386;16.940;2024-02-26T02:40:38;113.57;;;64.20;;
21890;SDS011;11110;52.386;16.940;2024-02-26T02:43:06;125.60;;;72.83;;
21890;SDS011;11110;52.386;16.940;2024-02-26T02:45:35;118.50;;;73.47;;
21890;SDS011;11110;52.386;16.940;2024-02-26T02:48:03;106.53;;;66.87;;
21890;SDS011;11110;52.386;16.940;2024-02-26T02:50:33;125.83;;;73.57;;
21890;SDS011;11110;52.386;16.940;2024-02-26T02:53:01;129.40;;;74.63;;
21890;SDS011;11110;52.386;16.940;2024-02-26T02:55:31;133.83;;;77.33;;
21890;SDS011;11110;52.386;16.940;2024-02-26T02:57:59;134.37;;;76.53;;
21890;SDS011;11110;52.386;16.940;2024-02-26T03:00:28;137.23;;;76.50;;
21890;SDS011;11110;52.386;16.940;2024-02-26T03:02:56;127.60;;;76.30;;
21890;SDS011;11110;52.386;16.940;2024-02-26T03:05:25;128.57;;;73.97;;
21890;SDS011;11110;52.386;16.940;2024-02-26T03:07:54;122.00;;;72.73;;
21890;SDS011;11110;52.386;16.940;2024-02-26T03:10:22;128.53;;;73.23;;
21890;SDS011;11110;52.386;16.940;2024-02-26T03:12:52;126.67;;;72.73;;
21890;SDS011;11110;52.386;16.940;2024-02-26T03:15:23;108.23;;;66.77;;
21890;SDS011;11110;52.386;16.940;2024-02-26T03:17:51;125.07;;;73.53;;
21890;SDS011;11110;52.386;16.940;2024-02-26T03:20:20;125.67;;;72.40;;
21890;SDS011;11110;52.386;16.940;2024-02-26T03:22:48;115.20;;;68.97;;
21890;SDS011;11110;52.386;16.940;2024-02-26T03:25:17;99.60;;;44.23;;
21890;SDS011;11110;52.386;16.940;2024-02-26T03:27:45;87.47;;;37.80;;
21890;SDS011;11110;52.386;16.940;2024-02-26T03:30:15;97.27;;;42.73;;
21890;SDS011;11110;52.386;16.940;2024-02-26T03:32:44;93.97;;;45.40;;
21890;SDS011;11110;52.386;16.940;2024-02-26T03:35:14;95.60;;;51.27;;
21890;SDS011;11110;52.386;16.940;2024-02-26T03:37:42;93.13;;;55.97;;
21890;SDS011;11110;52.386;16.940;2024-02-26T03:40:11;101.17;;;55.93;;
21890;SDS011;11110;52.386;16.940;2024-02-26T03:42:44;105.73;;;63.57;;
21890;SDS011;11110;52.386;16.940;2024-02-26T03:45:14;113.97;;;66.43;;
21890;SDS011;11110;52.386;16.940;2024-02-26T03:47:43;111.97;;;66.47;;
21890;SDS011;11110;52.386;16.940;2024-02-26T03:50:11;117.50;;;68.03;;
21890;SDS011;11110;52.386;16.940;2024-02-26T03:52:40;118.47;;;69.23;;
21890;SDS011;11110;52.386;16.940;2024-02-26T03:55:08;111.40;;;68.03;;
21890;SDS011;11110;52.386;16.940;2024-02-26T03:57:37;107.83;;;66.43;;
21890;SDS011;11110;52.386;16.940;2024-02-26T04:00:06;124.37;;;69.03;;
21890;SDS011;11110;52.386;16.940;2024-02-26T04:02:39;112.30;;;67.57;;
21890;SDS011;11110;52.386;16.940;2024-02-26T04:05:09;113.63;;;66.97;;
21890;SDS011;11110;52.386;16.940;2024-02-26T04:07:38;123.60;;;69.00;;
21890;SDS011;11110;52.386;16.940;2024-02-26T04:10:11;119.80;;;69.47;;
21890;SDS011;11110;52.386;16.940;2024-02-26T04:12:39;121.90;;;71.20;;
21890;SDS011;11110;52.386;16.940;2024-02-26T04:15:09;120.63;;;72.57;;
21890;SDS011;11110;52.386;16.940;2024-02-26T04:17:38;126.10;;;73.03;;
21890;SDS011;11110;52.386;16.940;2024-02-26T04:20:12;132.10;;;74.27;;
21890;SDS011;11110;52.386;16.940;2024-02-26T04:22:42;122.60;;;70.63;;
21890;SDS011;11110;52.386;16.940;2024-02-26T04:25:11;138.23;;;75.27;;
21890;SDS011;11110;52.386;16.940;2024-02-26T04:27:39;125.03;;;68.27;;
21890;SDS011;11110;52.386;16.940;2024-02-26T04:30:08;135.50;;;75.40;;
21890;SDS011;11110;52.386;16.940;2024-02-26T04:32:37;132.90;;;73.80;;
21890;SDS011;11110;52.386;16.940;2024-02-26T04:35:07;135.87;;;76.97;;
21890;SDS011;11110;52.386;16.940;2024-02-26T04:37:36;129.33;;;72.87;;
21890;SDS011;11110;52.386;16.940;2024-02-26T04:40:05;133.03;;;75.40;;
21890;SDS011;11110;52.386;16.940;2024-02-26T04:42:35;138.30;;;79.43;;
21890;SDS011;11110;52.386;16.940;2024-02-26T04:45:04;133.03;;;75.30;;
21890;SDS011;11110;52.386;16.940;2024-02-26T04:47:34;131.73;;;78.10;;
21890;SDS011;11110;52.386;16.940;2024-02-26T04:50:04;128.57;;;77.80;;
21890;SDS011;11110;52.386;16.940;2024-02-26T04:52:33;135.00;;;74.17;;
21890;SDS011;11110;52.386;16.940;2024-02-26T04:55:02;128.37;;;71.97;;
21890;SDS011;11110;52.386;16.940;2024-02-26T04:57:31;132.60;;;73.43;;
21890;SDS011;11110;52.386;16.940;2024-02-26T04:59:59;135.27;;;74.57;;
21890;SDS011;11110;52.386;16.940;2024-02-26T05:02:28;119.93;;;70.37;;
21890;SDS011;11110;52.386;16.940;2024-02-26T05:04:59;120.60;;;70.60;;
21890;SDS011;11110;52.386;16.940;2024-02-26T05:07:28;131.83;;;75.97;;
21890;SDS011;11110;52.386;16.940;2024-02-26T05:09:57;129.63;;;83.30;;
21890;SDS011;11110;52.386;16.940;2024-02-26T05:12:26;145.83;;;87.43;;
21890;SDS011;11110;52.386;16.940;2024-02-26T05:14:54;133.13;;;83.47;;
21890;SDS011;11110;52.386;16.940;2024-02-26T05:17:23;142.27;;;87.40;;
21890;SDS011;11110;52.386;16.940;2024-02-26T05:19:52;147.70;;;87.57;;
21890;SDS011;11110;52.386;16.940;2024-02-26T05:22:22;149.27;;;90.37;;
21890;SDS011;11110;52.386;16.940;2024-02-26T05:24:52;142.70;;;85.47;;
21890;SDS011;11110;52.386;16.940;2024-02-26T05:27:21;138.43;;;85.77;;
21890;SDS011;11110;52.386;16.940;2024-02-26T05:29:49;161.87;;;90.07;;
21890;SDS011;11110;52.386;16.940;2024-02-26T05:32:18;135.13;;;85.00;;
21890;SDS011;11110;52.386;16.940;2024-02-26T05:34:47;142.17;;;86.43;;
21890;SDS011;11110;52.386;16.940;2024-02-26T05:37:14;159.10;;;90.10;;
21890;SDS011;11110;52.386;16.940;2024-02-26T05:39:43;140.10;;;85.00;;
21890;SDS011;11110;52.386;16.940;2024-02-26T05:42:13;142.73;;;84.57;;
21890;SDS011;11110;52.386;16.940;2024-02-26T05:44:41;153.53;;;88.03;;
21890;SDS011;11110;52.386;16.940;2024-02-26T05:47:10;213.07;;;118.43;;
21890;SDS011;11110;52.386;16.940;2024-02-26T05:49:38;172.37;;;102.43;;
21890;SDS011;11110;52.386;16.940;2024-02-26T05:52:07;158.83;;;95.47;;
21890;SDS011;11110;52.386;16.940;2024-02-26T05:54:36;156.73;;;93.97;;
21890;SDS011;11110;52.386;16.940;2024-02-26T05:57:04;147.00;;;89.17;;
21890;SDS011;11110;52.386;16.940;2024-02-26T05:59:34;153.03;;;90.23;;
21890;SDS011;11110;52.386;16.940;2024-02-26T06:02:03;153.30;;;88.17;;
21890;SDS011;11110;52.386;16.940;2024-02-26T06:04:32;143.57;;;86.67;;
21890;SDS011;11110;52.386;16.940;2024-02-26T06:07:00;155.93;;;80.50;;
21890;SDS011;11110;52.386;16.940;2024-02-26T06:09:29;152.33;;;80.47;;
21890;SDS011;11110;52.386;16.940;2024-02-26T06:11:57;144.97;;;77.20;;
21890;SDS011;11110;52.386;16.940;2024-02-26T06:14:26;139.00;;;77.67;;
21890;SDS011;11110;52.386;16.940;2024-02-26T06:16:56;147.70;;;79.13;;
21890;SDS011;11110;52.386;16.940;2024-02-26T06:19:24;148.77;;;78.40;;
21890;SDS011;11110;52.386;16.940;2024-02-26T06:21:53;144.10;;;78.23;;
21890;SDS011;11110;52.386;16.940;2024-02-26T06:24:21;142.57;;;76.60;;
21890;SDS011;11110;52.386;16.940;2024-02-26T06:26:50;129.73;;;73.53;;
21890;SDS011;11110;52.386;16.940;2024-02-26T06:29:18;134.33;;;72.77;;
21890;SDS011;11110;52.386;16.940;2024-02-26T06:31:47;129.10;;;75.50;;
21890;SDS011;11110;52.386;16.940;2024-02-26T06:34:19;128.90;;;69.73;;
21890;SDS011;11110;52.386;16.940;2024-02-26T06:36:47;120.53;;;70.37;;
21890;SDS011;11110;52.386;16.940;2024-02-26T06:39:16;121.07;;;71.67;;
21890;SDS011;11110;52.386;16.940;2024-02-26T06:41:44;133.03;;;74.20;;
21890;SDS011;11110;52.386;16.940;2024-02-26T06:44:13;131.53;;;73.73;;
21890;SDS011;11110;52.386;16.940;2024-02-26T06:46:42;160.13;;;82.57;;
21890;SDS011;11110;52.386;16.940;2024-02-26T06:49:10;141.30;;;78.67;;
21890;SDS011;11110;52.386;16.940;2024-02-26T06:51:40;146.97;;;77.37;;
21890;SDS011;11110;52.386;16.940;2024-02-26T06:54:09;150.37;;;82.73;;
21890;SDS011;11110;52.386;16.940;2024-02-26T06:56:37;143.13;;;80.23;;
21890;SDS011;11110;52.386;16.940;2024-02-26T06:59:06;148.90;;;79.77;;
21890;SDS011;11110;52.386;16.940;2024-02-26T07:01:34;142.17;;;76.63;;
21890;SDS011;11110;52.386;16.940;2024-02-26T07:04:03;140.37;;;77.33;;
21890;SDS011;11110;52.386;16.940;2024-02-26T07:06:31;141.27;;;78.17;;
21890;SDS011;11110;52.386;16.940;2024-02-26T07:09:01;114.10;;;65.83;;
21890;SDS011;11110;52.386;16.940;2024-02-26T07:11:30;115.97;;;69.90;;
21890;SDS011;11110;52.386;16.940;2024-02-26T07:13:58;129.37;;;75.33;;
21890;SDS011;11110;52.386;16.940;2024-02-26T07:16:27;137.90;;;76.67;;
21890;SDS011;11110;52.386;16.940;2024-02-26T07:18:56;137.40;;;77.30;;
21890;SDS011;11110;52.386;16.940;2024-02-26T07:21:24;131.33;;;75.97;;
21890;SDS011;11110;52.386;16.940;2024-02-26T07:23:53;143.73;;;81.27;;
21890;SDS011;11110;52.386;16.940;2024-02-26T07:26:23;137.27;;;77.77;;
21890;SDS011;11110;52.386;16.940;2024-02-26T07:28:53;138.70;;;79.90;;
21890;SDS011;11110;52.386;16.940;2024-02-26T07:31:21;141.93;;;79.80;;
21890;SDS011;11110;52.386;16.940;2024-02-26T07:33:50;146.73;;;81.93;;
21890;SDS011;11110;52.386;16.940;2024-02-26T07:36:18;139.67;;;79.00;;
21890;SDS011;11110;52.386;16.940;2024-02-26T07:38:47;137.73;;;78.37;;
21890;SDS011;11110;52.386;16.940;2024-02-26T07:41:16;146.00;;;79.10;;
21890;SDS011;11110;52.386;16.940;2024-02-26T07:43:46;155.33;;;83.20;;
21890;SDS011;11110;52.386;16.940;2024-02-26T07:46:15;129.60;;;78.40;;
21890;SDS011;11110;52.386;16.940;2024-02-26T07:48:43;125.07;;;76.40;;
21890;SDS011;11110;52.386;16.940;2024-02-26T07:51:12;133.80;;;77.57;;
21890;SDS011;11110;52.386;16.940;2024-02-26T07:53:41;123.50;;;76.27;;
21890;SDS011;11110;52.386;16.940;2024-02-26T07:56:10;119.37;;;74.97;;
21890;SDS011;11110;52.386;16.940;2024-02-26T07:58:38;114.27;;;72.70;;
21890;SDS011;11110;52.386;16.940;2024-02-26T08:01:08;127.70;;;76.33;;
21890;SDS011;11110;52.386;16.940;2024-02-26T08:03:37;129.23;;;76.97;;
21890;SDS011;11110;52.386;16.940;2024-02-26T08:06:07;97.80;;;56.63;;
21890;SDS011;11110;52.386;16.940;2024-02-26T08:08:36;112.87;;;71.77;;
21890;SDS011;11110;52.386;16.940;2024-02-26T08:11:05;117.10;;;72.93;;
21890;SDS011;11110;52.386;16.940;2024-02-26T08:13:34;97.00;;;61.73;;
21890;SDS011;11110;52.386;16.940;2024-02-26T08:16:03;96.47;;;51.67;;
21890;SDS011;11110;52.386;16.940;2024-02-26T08:18:33;90.97;;;52.77;;
21890;SDS011;11110;52.386;16.940;2024-02-26T08:21:02;84.33;;;51.63;;
21890;SDS011;11110;52.386;16.940;2024-02-26T08:23:31;80.23;;;50.40;;
21890;SDS011;11110;52.386;16.940;2024-02-26T08:25:59;93.17;;;50.33;;
21890;SDS011;11110;52.386;16.940;2024-02-26T08:28:28;80.70;;;39.83;;
21890;SDS011;11110;52.386;16.940;2024-02-26T08:30:56;79.50;;;42.43;;
21890;SDS011;11110;52.386;16.940;2024-02-26T08:33:25;75.67;;;27.57;;
21890;SDS011;11110;52.386;16.940;2024-02-26T08:35:55;76.50;;;32.97;;
21890;SDS011;11110;52.386;16.940;2024-02-26T08:38:24;70.50;;;29.60;;
21890;SDS011;11110;52.386;16.940;2024-02-26T08:40:52;82.27;;;32.53;;
21890;SDS011;11110;52.386;16.940;2024-02-26T08:43:21;75.43;;;32.30;;
21890;SDS011;11110;52.386;16.940;2024-02-26T08:45:49;75.00;;;34.40;;
21890;SDS011;11110;52.386;16.940;2024-02-26T08:48:18;77.57;;;37.93;;
21890;SDS011;11110;52.386;16.940;2024-02-26T08:50:46;67.83;;;26.27;;
21890;SDS011;11110;52.386;16.940;2024-02-26T08:53:16;78.57;;;32.13;;
21890;SDS011;11110;52.386;16.940;2024-02-26T08:55:57;72.17;;;28.60;;
21890;SDS011;11110;52.386;16.940;2024-02-26T08:58:25;62.87;;;24.53;;
21890;SDS011;11110;52.386;16.940;2024-02-26T09:00:55;61.10;;;23.70;;
21890;SDS011;11110;52.386;16.940;2024-02-26T09:03:23;68.73;;;23.67;;
21890;SDS011;11110;52.386;16.940;2024-02-26T09:05:52;62.37;;;22.23;;
21890;SDS011;11110;52.386;16.940;2024-02-26T09:08:22;67.93;;;23.00;;
21890;SDS011;11110;52.386;16.940;2024-02-26T09:10:51;68.37;;;24.07;;
21890;SDS011;11110;52.386;16.940;2024-02-26T09:13:20;57.97;;;21.80;;
21890;SDS011;11110;52.386;16.940;2024-02-26T09:15:48;63.13;;;21.87;;
21890;SDS011;11110;52.386;16.940;2024-02-26T09:18:17;58.43;;;21.07;;
21890;SDS011;11110;52.386;16.940;2024-02-26T09:20:45;57.03;;;21.60;;
21890;SDS011;11110;52.386;16.940;2024-02-26T09:23:14;71.83;;;22.63;;
21890;SDS011;11110;52.386;16.940;2024-02-26T09:25:43;65.00;;;21.70;;
21890;SDS011;11110;52.386;16.940;2024-02-26T09:28:12;61.63;;;21.37;;
21890;SDS011;11110;52.386;16.940;2024-02-26T09:30:43;53.77;;;19.07;;
21890;SDS011;11110;52.386;16.940;2024-02-26T09:33:13;50.37;;;19.47;;
21890;SDS011;11110;52.386;16.940;2024-02-26T09:35:42;53.50;;;19.00;;
21890;SDS011;11110;52.386;16.940;2024-02-26T09:38:10;57.80;;;19.63;;
21890;SDS011;11110;52.386;16.940;2024-02-26T09:40:39;58.87;;;20.67;;
21890;SDS011;11110;52.386;16.940;2024-02-26T09:43:09;53.13;;;19.23;;
21890;SDS011;11110;52.386;16.940;2024-02-26T09:45:41;52.20;;;19.27;;
21890;SDS011;11110;52.386;16.940;2024-02-26T09:48:10;48.33;;;18.83;;
21890;SDS011;11110;52.386;16.940;2024-02-26T09:50:41;62.80;;;20.03;;
21890;SDS011;11110;52.386;16.940;2024-02-26T09:53:11;55.80;;;19.57;;
21890;SDS011;11110;52.386;16.940;2024-02-26T09:55:41;61.67;;;20.20;;
21890;SDS011;11110;52.386;16.940;2024-02-26T09:58:11;49.33;;;18.97;;
21890;SDS011;11110;52.386;16.940;2024-02-26T10:00:46;53.00;;;19.23;;
21890;SDS011;11110;52.386;16.940;2024-02-26T10:03:19;61.83;;;21.17;;
21890;SDS011;11110;52.386;16.940;2024-02-26T10:05:52;52.97;;;19.60;;
21890;SDS011;11110;52.386;16.940;2024-02-26T10:08:22;50.33;;;19.33;;
21890;SDS011;11110;52.386;16.940;2024-02-26T10:10:52;55.37;;;19.53;;
21890;SDS011;11110;52.386;16.940;2024-02-26T10:13:23;46.13;;;18.27;;
21890;SDS011;11110;52.386;16.940;2024-02-26T10:15:52;53.37;;;19.23;;
21890;SDS011;11110;52.386;16.940;2024-02-26T10:18:22;50.10;;;18.73;;
21890;SDS011;11110;52.386;16.940;2024-02-26T10:21:00;48.80;;;18.63;;
21890;SDS011;11110;52.386;16.940;2024-02-26T10:23:28;54.70;;;18.17;;
21890;SDS011;11110;52.386;16.940;2024-02-26T10:25:57;49.07;;;17.93;;
21890;SDS011;11110;52.386;16.940;2024-02-26T10:28:27;53.80;;;18.47;;
21890;SDS011;11110;52.386;16.940;2024-02-26T10:30:57;55.57;;;19.80;;
21890;SDS011;11110;52.386;16.940;2024-02-26T10:33:27;43.90;;;17.40;;
21890;SDS011;11110;52.386;16.940;2024-02-26T10:36:00;44.10;;;17.00;;
21890;SDS011;11110;52.386;16.940;2024-02-26T10:38:29;47.47;;;16.83;;
21890;SDS011;11110;52.386;16.940;2024-02-26T10:40:57;46.03;;;17.30;;
21890;SDS011;11110;52.386;16.940;2024-02-26T10:43:27;44.53;;;16.70;;
21890;SDS011;11110;52.386;16.940;2024-02-26T10:45:56;45.07;;;16.77;;
21890;SDS011;11110;52.386;16.940;2024-02-26T10:48:24;50.37;;;16.80;;
21890;SDS011;11110;52.386;16.940;2024-02-26T10:50:53;34.63;;;14.03;;
21890;SDS011;11110;52.386;16.940;2024-02-26T10:53:26;40.40;;;13.53;;
21890;SDS011;11110;52.386;16.940;2024-02-26T10:55:59;30.13;;;11.97;;
21890;SDS011;11110;52.386;16.940;2024-02-26T10:58:33;43.57;;;14.13;;
21890;SDS011;11110;52.386;16.940;2024-02-26T11:01:02;46.27;;;14.87;;
21890;SDS011;11110;52.386;16.940;2024-02-26T11:03:32;38.43;;;13.70;;
21890;SDS011;11110;52.386;16.940;2024-02-26T11:06:04;40.43;;;13.73;;
21890;SDS011;11110;52.386;16.940;2024-02-26T11:08:33;46.00;;;15.00;;
21890;SDS011;11110;52.386;16.940;2024-02-26T11:11:02;39.60;;;13.87;;
21890;SDS011;11110;52.386;16.940;2024-02-26T11:13:32;45.80;;;14.83;;
21890;SDS011;11110;52.386;16.940;2024-02-26T11:16:08;41.50;;;13.17;;
21890;SDS011;11110;52.386;16.940;2024-02-26T11:18:37;34.57;;;12.77;;
21890;SDS011;11110;52.386;16.940;2024-02-26T11:21:10;44.73;;;13.20;;
21890;SDS011;11110;52.386;16.940;2024-02-26T11:23:41;39.20;;;13.93;;
21890;SDS011;11110;52.386;16.940;2024-02-26T11:26:09;42.77;;;13.57;;
21890;SDS011;11110;52.386;16.940;2024-02-26T11:28:40;44.70;;;13.70;;
21890;SDS011;11110;52.386;16.940;2024-02-26T11:31:09;41.40;;;12.53;;
21890;SDS011;11110;52.386;16.940;2024-02-26T11:33:39;37.13;;;12.60;;
21890;SDS011;11110;52.386;16.940;2024-02-26T11:36:08;46.37;;;13.43;;
21890;SDS011;11110;52.386;16.940;2024-02-26T11:38:37;39.57;;;12.63;;
21890;SDS011;11110;52.386;16.940;2024-02-26T11:41:06;39.87;;;12.30;;
21890;SDS011;11110;52.386;16.940;2024-02-26T11:43:52;40.13;;;12.98;;
21890;SDS011;11110;52.386;16.940;2024-02-26T11:46:28;37.38;;;12.88;;
21890;SDS011;11110;52.386;16.940;2024-02-26T11:48:58;44.50;;;13.65;;
21890;SDS011;11110;52.386;16.940;2024-02-26T11:51:28;40.58;;;13.40;;
21890;SDS011;11110;52.386;16.940;2024-02-26T11:54:01;39.97;;;14.00;;
21890;SDS011;11110;52.386;16.940;2024-02-26T11:56:29;45.65;;;14.93;;
21890;SDS011;11110;52.386;16.940;2024-02-26T11:59:03;43.53;;;13.98;;
21890;SDS011;11110;52.386;16.940;2024-02-26T12:01:37;42.40;;;13.75;;
21890;SDS011;11110;52.386;16.940;2024-02-26T12:04:16;39.70;;;12.70;;
21890;SDS011;11110;52.386;16.940;2024-02-26T12:06:53;47.30;;;14.98;;
21890;SDS011;11110;52.386;16.940;2024-02-26T12:09:31;46.47;;;14.23;;
21890;SDS011;11110;52.386;16.940;2024-02-26T12:12:04;43.67;;;14.70;;
21890;SDS011;11110;52.386;16.940;2024-02-26T12:14:36;37.50;;;13.05;;
21890;SDS011;11110;52.386;16.940;2024-02-26T12:17:06;44.78;;;14.88;;
21890;SDS011;11110;52.386;16.940;2024-02-26T12:19:36;48.80;;;15.45;;
21890;SDS011;11110;52.386;16.940;2024-02-26T12:22:10;42.85;;;14.15;;
21890;SDS011;11110;52.386;16.940;2024-02-26T12:24:42;43.03;;;14.88;;
21890;SDS011;11110;52.386;16.940;2024-02-26T12:27:11;41.50;;;13.88;;
21890;SDS011;11110;52.386;16.940;2024-02-26T12:29:41;53.35;;;15.23;;
21890;SDS011;11110;52.386;16.940;2024-02-26T12:32:10;46.28;;;14.88;;
21890;SDS011;11110;52.386;16.940;2024-02-26T12:34:39;41.83;;;14.13;;
21890;SDS011;11110;52.386;16.940;2024-02-26T12:37:08;39.53;;;13.27;;
21890;SDS011;11110;52.386;16.940;2024-02-26T12:39:38;43.47;;;13.55;;
21890;SDS011;11110;52.386;16.940;2024-02-26T12:42:06;44.30;;;13.73;;
21890;SDS011;11110;52.386;16.940;2024-02-26T12:44:35;41.22;;;12.90;;
21890;SDS011;11110;52.386;16.940;2024-02-26T12:47:06;36.72;;;13.10;;
21890;SDS011;11110;52.386;16.940;2024-02-26T12:49:34;31.85;;;12.38;;
21890;SDS011;11110;52.386;16.940;2024-02-26T12:52:03;37.20;;;13.35;;
21890;SDS011;11110;52.386;16.940;2024-02-26T12:54:33;37.45;;;13.13;;
21890;SDS011;11110;52.386;16.940;2024-02-26T12:57:05;39.30;;;12.98;;
21890;SDS011;11110;52.386;16.940;2024-02-26T12:59:36;44.10;;;13.68;;
21890;SDS011;11110;52.386;16.940;2024-02-26T13:02:06;47.28;;;13.82;;
21890;SDS011;11110;52.386;16.940;2024-02-26T13:04:36;39.28;;;13.55;;
21890;SDS011;11110;52.386;16.940;2024-02-26T13:07:05;44.20;;;14.25;;
21890;SDS011;11110;52.386;16.940;2024-02-26T13:09:34;39.33;;;13.43;;
21890;SDS011;11110;52.386;16.940;2024-02-26T13:12:04;41.72;;;14.48;;
21890;SDS011;11110;52.386;16.940;2024-02-26T13:14:33;38.97;;;12.98;;
21890;SDS011;11110;52.386;16.940;2024-02-26T13:17:02;39.67;;;13.50;;
21890;SDS011;11110;52.386;16.940;2024-02-26T13:19:33;43.95;;;13.38;;
21890;SDS011;11110;52.386;16.940;2024-02-26T13:22:05;37.55;;;13.07;;
21890;SDS011;11110;52.386;16.940;2024-02-26T13:24:34;42.08;;;14.15;;
21890;SDS011;11110;52.386;16.940;2024-02-26T13:27:03;40.80;;;14.02;;
21890;SDS011;11110;52.386;16.940;2024-02-26T13:29:33;47.92;;;15.23;;
21890;SDS011;11110;52.386;16.940;2024-02-26T13:32:03;44.60;;;14.70;;
21890;SDS011;11110;52.386;16.940;2024-02-26T13:34:34;37.45;;;12.68;;
21890;SDS011;11110;52.386;16.940;2024-02-26T13:37:03;42.38;;;14.20;;
21890;SDS011;11110;52.386;16.940;2024-02-26T13:39:32;36.25;;;13.15;;
21890;SDS011;11110;52.386;16.940;2024-02-26T13:42:04;48.28;;;13.93;;
21890;SDS011;11110;52.386;16.940;2024-02-26T13:44:34;42.95;;;14.20;;
21890;SDS011;11110;52.386;16.940;2024-02-26T13:47:06;40.85;;;13.93;;
21890;SDS011;11110;52.386;16.940;2024-02-26T13:49:36;41.28;;;13.95;;
21890;SDS011;11110;52.386;16.940;2024-02-26T13:52:04;40.25;;;13.55;;
21890;SDS011;11110;52.386;16.940;2024-02-26T13:54:33;43.28;;;14.07;;
21890;SDS011;11110;52.386;16.940;2024-02-26T13:57:02;43.63;;;13.82;;
21890;SDS011;11110;52.386;16.940;2024-02-26T13:59:31;46.22;;;14.20;;
21890;SDS011;11110;52.386;16.940;2024-02-26T14:02:01;42.95;;;13.65;;
21890;SDS011;11110;52.386;16.940;2024-02-26T14:04:30;45.60;;;14.00;;
21890;SDS011;11110;52.386;16.940;2024-02-26T14:07:00;41.58;;;13.38;;
21890;SDS011;11110;52.386;16.940;2024-02-26T14:09:30;46.88;;;13.77;;
21890;SDS011;11110;52.386;16.940;2024-02-26T14:12:14;50.10;;;13.90;;
21890;SDS011;11110;52.386;16.940;2024-02-26T14:14:45;49.30;;;14.40;;